Portada
METAR-TAF:

METAR-TAF

Aeropuertos :

Aeropuerto Internacional de Chengdú-Shuangliu

Chengdu, China

latitud: 30-40N, longitud: 104-01E, altitud: 508 m

Observación

El informe se hizo hace 18 minutos, a las 19:00 UTC
Viento calma
Temperatura 25°C
Humedad 83%
Presión 1002 hPa
Visibilidad 10 km o más
sin nubes por debajo de 1500 m y sin presencia de cumulonimbus.

METAR: ZUUU 181900Z 00000MPS CAVOK 25/22 Q1002 NOSIG

Hora: 03:18 (19:18 UTC)

Pronóstico

El informe se hizo hace 5 horas y 14 minutos, a las 14:04 UTC
Pronóstico válido del 18 a las 18 UTC al 19 a las 18 UTC
Viento 6 kt del norte-noreste
Visibilidad: 5000 m
Nubes dispersas a una altura de 5000 ft
neblina

TAF: ZUUU 181404Z 1818/1918 03003MPS 5000 BR SCT050 TX32/1907Z TN21/1821Z

Observaciones y pronósticos meteorológicos de más de 4000 aeropuertos (mensajes METAR y TAF).

Los puntos amarillos y rojos representan las estaciones disponibles.

Ponga el ratón en el punto deseado para ver el nombre de la estación.

Haga clic para ver las observaciones y los pronósticos meteorológicos.

Para cambiar el mapa : haga clic en los botones verdes con una cruz de color negro para hacer un zoom, en el botón verde con un guión para alejar o en las flechas verdes para mapas adyacentes.


METAR-TAF: